createdAt,value
2023-03-25T00:00:15.581Z,97728.03
2023-03-25T00:02:47.768Z,97723.09
2023-03-25T00:05:15.600Z,97717.59
2023-03-25T00:07:43.604Z,97719.75
2023-03-25T00:10:11.787Z,97711.03
2023-03-25T00:12:38.966Z,97715.50
2023-03-25T00:15:07.739Z,97708.38
2023-03-25T00:17:37.193Z,97706.25
2023-03-25T00:20:10.062Z,97698.88
2023-03-25T00:22:41.674Z,97709.25
2023-03-25T00:25:16.666Z,97706.59
2023-03-25T00:27:44.645Z,97697.69
2023-03-25T00:30:11.969Z,97702.28
2023-03-25T00:32:39.933Z,97709.53
2023-03-25T00:35:08.663Z,97709.72
2023-03-25T00:37:35.378Z,97704.25
2023-03-25T00:40:03.836Z,97710.22
2023-03-25T00:42:30.590Z,97710.38
2023-03-25T00:44:57.406Z,97714.66
2023-03-25T00:47:24.625Z,97708.88
2023-03-25T00:49:52.082Z,97708.72
2023-03-25T00:52:19.713Z,97704.75
2023-03-25T00:54:47.171Z,97702.66
2023-03-25T00:57:14.610Z,97703.47
2023-03-25T00:59:41.449Z,97685.81
2023-03-25T01:02:09.477Z,97690.75
2023-03-25T01:04:39.445Z,97686.00
2023-03-25T01:07:08.119Z,97680.38
2023-03-25T01:09:37.560Z,97688.47
2023-03-25T01:12:04.820Z,97681.84
2023-03-25T01:14:31.543Z,97679.84
2023-03-25T01:16:59.238Z,97678.38
2023-03-25T01:19:27.544Z,97669.78
2023-03-25T01:21:54.396Z,97675.38
2023-03-25T01:24:21.210Z,97677.03
2023-03-25T01:26:47.924Z,97685.88
2023-03-25T01:29:17.082Z,97674.53
2023-03-25T01:31:44.144Z,97676.16
2023-03-25T01:34:11.352Z,97678.66
2023-03-25T01:36:40.233Z,97666.63
2023-03-25T01:39:08.225Z,97660.34
2023-03-25T01:41:46.788Z,97658.50
2023-03-25T01:44:22.407Z,97660.53
2023-03-25T01:46:53.864Z,97656.06
2023-03-25T01:49:39.285Z,97654.28
2023-03-25T01:52:09.899Z,97658.56
2023-03-25T01:54:39.038Z,97663.31
2023-03-25T01:57:06.979Z,97658.75
2023-03-25T01:59:34.055Z,97653.13
2023-03-25T02:04:59.393Z,97653.13
2023-03-25T02:07:31.345Z,97646.69
2023-03-25T02:10:04.971Z,97637.28
2023-03-25T02:12:32.036Z,97631.00
2023-03-25T02:15:00.880Z,97635.66
2023-03-25T02:17:44.065Z,97637.94
2023-03-25T02:20:29.028Z,97632.19
2023-03-25T02:23:11.247Z,97634.16
2023-03-25T02:25:59.948Z,97638.78
2023-03-25T02:28:40.047Z,97648.84
2023-03-25T02:31:16.110Z,97645.38
2023-03-25T02:34:01.755Z,97639.13
2023-03-25T02:36:41.563Z,97650.34
2023-03-25T02:39:37.182Z,97652.00
2023-03-25T02:42:21.135Z,97655.28
2023-03-25T02:44:54.565Z,97670.16
2023-03-25T02:47:23.726Z,97672.41
2023-03-25T02:50:01.188Z,97707.84
2023-03-25T02:52:30.877Z,97746.91
2023-03-25T02:55:02.391Z,97755.19
2023-03-25T02:57:32.646Z,97736.97
2023-03-25T03:00:00.008Z,97743.47
2023-03-25T03:02:32.691Z,97724.38
2023-03-25T03:05:00.617Z,97708.59
2023-03-25T03:07:30.872Z,97701.34
2023-03-25T03:10:13.533Z,97689.41
2023-03-25T03:12:42.811Z,97695.28
2023-03-25T03:15:21.189Z,97687.91
2023-03-25T03:18:38.306Z,97687.75
2023-03-25T03:21:40.657Z,97665.94
2023-03-25T03:24:23.339Z,97656.38
2023-03-25T03:26:55.956Z,97670.44
2023-03-25T03:29:49.034Z,97665.84
2023-03-25T03:32:28.838Z,97667.84
2023-03-25T03:34:59.756Z,97681.69
2023-03-25T03:37:32.822Z,97688.28
2023-03-25T03:39:59.733Z,97678.59
2023-03-25T03:42:33.077Z,97682.31
2023-03-25T03:45:05.986Z,97690.22
2023-03-25T03:47:37.159Z,97683.72
2023-03-25T03:50:13.505Z,97706.13
2023-03-25T03:52:43.750Z,97710.22
2023-03-25T03:55:19.348Z,97718.72
2023-03-25T03:57:50.992Z,97723.06
2023-03-25T04:00:34.070Z,97720.56
2023-03-25T04:03:15.760Z,97724.31
2023-03-25T04:05:46.294Z,97716.28
2023-03-25T04:08:26.697Z,97722.38
2023-03-25T04:10:59.452Z,97724.19
2023-03-25T04:13:29.486Z,97719.47
2023-03-25T04:16:00.330Z,97715.41
2023-03-25T04:18:28.720Z,97715.63
2023-03-25T04:20:56.277Z,97722.09
2023-03-25T04:23:23.006Z,97718.50
2023-03-25T04:25:55.795Z,97721.25
2023-03-25T04:28:24.367Z,97722.84
2023-03-25T04:30:55.970Z,97721.69
2023-03-25T04:33:25.622Z,97719.44
2023-03-25T04:35:53.304Z,97716.09
2023-03-25T04:38:20.589Z,97725.13
2023-03-25T04:40:47.842Z,97724.31
2023-03-25T04:43:16.031Z,97716.53
2023-03-25T04:45:49.597Z,97727.19
2023-03-25T04:48:24.125Z,97716.97
2023-03-25T04:50:56.073Z,97725.41
2023-03-25T04:53:22.970Z,97728.19
2023-03-25T04:55:56.057Z,97726.91
2023-03-25T04:58:23.856Z,97731.50
2023-03-25T05:00:52.864Z,97740.06
2023-03-25T05:03:24.966Z,97737.03
2023-03-25T05:06:02.147Z,97732.03
2023-03-25T05:08:34.521Z,97735.91
2023-03-25T05:11:04.474Z,97740.97
2023-03-25T05:13:32.255Z,97743.28
2023-03-25T05:16:08.709Z,97754.88
2023-03-25T05:18:36.900Z,97753.97
2023-03-25T05:21:05.367Z,97742.63
2023-03-25T05:23:32.526Z,97747.13
2023-03-25T05:25:59.666Z,97748.13
2023-03-25T05:28:26.783Z,97746.81
2023-03-25T05:30:55.309Z,97755.09
2023-03-25T05:33:22.626Z,97757.28
2023-03-25T05:35:49.776Z,97763.59
2023-03-25T05:38:18.689Z,97757.38
2023-03-25T05:40:47.103Z,97754.91
2023-03-25T05:43:17.475Z,97751.63
2023-03-25T05:45:45.672Z,97746.34
2023-03-25T05:48:12.612Z,97747.69
2023-03-25T05:50:43.025Z,97752.94
2023-03-25T05:53:15.719Z,97751.66
2023-03-25T05:55:42.574Z,97748.66
2023-03-25T05:58:09.374Z,97747.69
2023-03-25T06:00:37.354Z,97748.66
2023-03-25T06:03:07.349Z,97738.97
2023-03-25T06:05:34.315Z,97753.94
2023-03-25T06:08:02.115Z,97747.91
2023-03-25T06:10:29.834Z,97751.41
2023-03-25T06:12:56.743Z,97755.69
2023-03-25T06:15:29.528Z,97762.25
2023-03-25T06:17:57.233Z,97762.94
2023-03-25T06:20:24.193Z,97767.56
2023-03-25T06:22:51.339Z,97773.06
2023-03-25T06:25:21.039Z,97777.53
2023-03-25T06:27:49.494Z,97784.84
2023-03-25T06:30:21.795Z,97785.81
2023-03-25T06:32:52.711Z,97785.56
2023-03-25T06:35:20.766Z,97780.94
2023-03-25T06:37:49.236Z,97781.69
2023-03-25T06:40:25.240Z,97787.72
2023-03-25T06:42:52.363Z,97786.59
2023-03-25T06:45:37.447Z,97781.88
2023-03-25T06:48:09.791Z,97782.94
2023-03-25T06:50:36.520Z,97779.81
2023-03-25T06:53:03.856Z,97789.91
2023-03-25T06:55:30.731Z,97787.84
2023-03-25T06:58:35.159Z,97778.63
2023-03-25T07:01:07.569Z,97780.13
2023-03-25T07:03:37.286Z,97780.75
2023-03-25T07:06:07.860Z,97774.81
2023-03-25T07:08:34.773Z,97784.69
2023-03-25T07:11:06.376Z,97770.22
2023-03-25T07:13:33.414Z,97775.69
2023-03-25T07:16:00.639Z,97767.19
2023-03-25T07:18:27.636Z,97782.72
2023-03-25T07:20:54.347Z,97777.00
2023-03-25T07:23:21.115Z,97773.72
2023-03-25T07:25:48.067Z,97779.31
2023-03-25T07:28:14.962Z,97772.78
2023-03-25T07:30:46.211Z,97786.75
2023-03-25T07:33:12.886Z,97781.00
2023-03-25T07:35:39.625Z,97782.91
2023-03-25T07:38:06.470Z,97770.00
2023-03-25T07:40:33.281Z,97776.38
2023-03-25T07:42:59.951Z,97783.03
2023-03-25T07:45:44.566Z,97784.91
2023-03-25T07:48:14.933Z,97782.66
2023-03-25T07:50:42.531Z,97787.13
2023-03-25T07:53:10.188Z,97789.78
2023-03-25T07:55:37.564Z,97785.66
2023-03-25T07:58:04.229Z,97777.44
2023-03-25T08:00:31.403Z,97779.09
2023-03-25T08:02:58.169Z,97778.41
2023-03-25T08:05:25.343Z,97778.06
2023-03-25T08:07:52.952Z,97784.78
2023-03-25T08:10:20.164Z,97763.69
2023-03-25T08:12:46.935Z,97775.03
2023-03-25T08:15:14.158Z,97769.34
2023-03-25T08:17:41.131Z,97762.97
2023-03-25T08:20:09.129Z,97766.03
2023-03-25T08:22:36.428Z,97762.56
2023-03-25T08:25:03.817Z,97772.25
2023-03-25T08:27:31.016Z,97764.28
2023-03-25T08:30:00.033Z,97770.31
2023-03-25T08:32:28.155Z,97770.97
2023-03-25T08:34:55.305Z,97766.44
2023-03-25T08:37:24.087Z,97766.03
2023-03-25T08:39:50.851Z,97764.88
2023-03-25T08:42:17.978Z,97752.91
2023-03-25T08:44:44.676Z,97747.47
2023-03-25T08:47:11.688Z,97754.78
2023-03-25T08:49:38.492Z,97755.00
2023-03-25T08:52:08.795Z,97755.22
2023-03-25T08:54:36.133Z,97744.19
2023-03-25T08:57:02.942Z,97757.75
2023-03-25T08:59:29.833Z,97776.44
2023-03-25T09:01:57.789Z,97763.22
2023-03-25T09:04:26.435Z,97759.94
2023-03-25T09:07:11.946Z,97771.16
2023-03-25T09:09:42.767Z,97776.94
2023-03-25T09:12:09.884Z,97775.63
2023-03-25T09:14:37.090Z,97782.50
2023-03-25T09:17:06.162Z,97784.78
2023-03-25T09:19:34.791Z,97771.97
2023-03-25T09:22:01.797Z,97777.44
2023-03-25T09:24:28.760Z,97776.44
2023-03-25T09:26:55.506Z,97777.09
2023-03-25T09:29:22.434Z,97777.78
2023-03-25T09:31:49.133Z,97777.78
2023-03-25T09:34:16.246Z,97781.06
2023-03-25T09:36:43.283Z,97776.75
2023-03-25T09:39:09.991Z,97777.28
2023-03-25T09:42:07.584Z,97783.88
2023-03-25T09:45:03.037Z,97774.13
2023-03-25T09:47:37.110Z,97769.81
2023-03-25T09:50:07.404Z,97758.66
2023-03-25T09:53:01.831Z,97767.72
2023-03-25T09:55:30.950Z,97763.09
2023-03-25T09:58:36.155Z,97761.38
2023-03-25T10:02:00.173Z,97758.59
2023-03-25T10:04:29.158Z,97758.81
2023-03-25T10:07:34.391Z,97770.59
2023-03-25T10:10:29.749Z,97761.34
2023-03-25T10:13:24.466Z,97753.09
2023-03-25T10:16:00.274Z,97747.34
2023-03-25T10:18:47.398Z,97752.34
2023-03-25T10:21:18.125Z,97742.38
2023-03-25T10:24:15.799Z,97744.19
2023-03-25T10:26:48.617Z,97737.88
2023-03-25T10:29:21.957Z,97745.41
2023-03-25T10:31:53.203Z,97747.06
2023-03-25T10:34:24.464Z,97744.66
2023-03-25T10:36:58.227Z,97727.91
2023-03-25T10:39:34.113Z,97725.28
2023-03-25T10:42:21.962Z,97728.81
2023-03-25T10:44:48.813Z,97722.94
2023-03-25T10:47:20.575Z,97732.78
2023-03-25T10:49:48.418Z,97734.72
2023-03-25T10:52:16.736Z,97734.38
2023-03-25T10:54:50.760Z,97721.88
2023-03-25T10:57:22.442Z,97724.09
2023-03-25T10:59:53.255Z,97724.19
2023-03-25T11:02:22.936Z,97720.41
2023-03-25T11:04:51.687Z,97726.09
2023-03-25T11:07:36.880Z,97722.78
2023-03-25T11:10:17.617Z,97730.00
2023-03-25T11:12:48.588Z,97735.66
2023-03-25T11:15:26.313Z,97738.44
2023-03-25T11:18:11.914Z,97731.75
2023-03-25T11:20:41.431Z,97734.28
2023-03-25T11:23:26.110Z,97726.22
2023-03-25T11:25:54.876Z,97711.91
2023-03-25T11:28:36.066Z,97736.50
2023-03-25T11:31:12.739Z,97727.28
2023-03-25T11:33:41.364Z,97710.34
2023-03-25T11:36:41.561Z,97711.97
2023-03-25T11:39:18.524Z,97707.56
2023-03-25T11:41:46.000Z,97702.06
2023-03-25T11:44:41.947Z,97708.03
2023-03-25T11:47:10.116Z,97702.19
2023-03-25T11:49:39.020Z,97701.53
2023-03-25T11:52:21.214Z,97712.66
2023-03-25T11:54:48.318Z,97700.22
2023-03-25T11:57:18.948Z,97711.19
2023-03-25T11:59:47.723Z,97699.44
2023-03-25T12:02:17.472Z,97698.91
2023-03-25T12:05:04.448Z,97698.41
2023-03-25T12:07:41.738Z,97702.16
2023-03-25T12:10:16.966Z,97699.44
2023-03-25T12:12:52.198Z,97699.56
2023-03-25T12:15:41.854Z,97700.38
2023-03-25T12:18:42.074Z,97700.63
2023-03-25T12:21:38.469Z,97703.44
2023-03-25T12:24:05.494Z,97708.59
2023-03-25T12:26:53.724Z,97691.00
2023-03-25T12:29:30.018Z,97694.50
2023-03-25T12:32:04.163Z,97693.41
2023-03-25T12:34:39.500Z,97697.03
2023-03-25T12:37:33.209Z,97696.50
2023-03-25T12:40:12.039Z,97702.03
2023-03-25T12:42:43.842Z,97714.81
2023-03-25T12:45:45.428Z,97724.44
2023-03-25T12:48:21.271Z,97738.44
2023-03-25T12:51:07.861Z,97763.41
2023-03-25T12:53:57.020Z,97775.56
2023-03-25T12:56:44.855Z,97772.94
2023-03-25T12:59:27.953Z,97752.28
2023-03-25T13:02:27.802Z,97746.25
2023-03-25T13:05:27.658Z,97746.03
2023-03-25T13:07:58.513Z,97749.13
2023-03-25T13:10:29.124Z,97745.88
2023-03-25T13:12:58.476Z,97740.84
2023-03-25T13:16:09.945Z,97752.72
2023-03-25T13:18:48.509Z,97733.88
2023-03-25T13:21:24.582Z,97727.19
2023-03-25T13:24:06.658Z,97723.19
2023-03-25T13:26:35.682Z,97729.53
2023-03-25T13:29:05.797Z,97722.75
2023-03-25T13:31:37.580Z,97739.63
2023-03-25T13:34:39.936Z,97736.69
2023-03-25T13:37:20.084Z,97757.50
2023-03-25T13:40:16.591Z,97751.34
2023-03-25T13:42:49.201Z,97730.00
2023-03-25T13:45:18.345Z,97739.91
2023-03-25T13:48:01.216Z,97736.69
2023-03-25T13:50:29.513Z,97727.66
2023-03-25T13:53:02.234Z,97714.03
2023-03-25T13:55:35.698Z,97710.63
2023-03-25T13:58:36.514Z,97702.81
2023-03-25T14:01:28.286Z,97704.69
2023-03-25T14:04:17.483Z,97719.31
2023-03-25T14:07:10.225Z,97710.94
2023-03-25T14:10:03.536Z,97714.28
2023-03-25T14:12:35.157Z,97730.16
2023-03-25T14:15:32.068Z,97732.78
2023-03-25T14:18:00.334Z,97758.16
2023-03-25T14:20:35.734Z,97799.72
2023-03-25T14:23:05.138Z,97799.53
2023-03-25T14:25:38.933Z,97808.78
2023-03-25T14:28:08.022Z,97807.50
2023-03-25T14:30:35.212Z,97770.84
2023-03-25T14:33:05.800Z,97767.13
2023-03-25T14:35:38.410Z,97770.75
2023-03-25T14:38:08.015Z,97766.06
2023-03-25T14:43:24.170Z,97761.13
2023-03-25T14:46:03.883Z,97752.03
2023-03-25T14:48:34.680Z,97754.47
2023-03-25T14:51:23.396Z,97752.56
2023-03-25T14:54:18.805Z,97746.13
2023-03-25T14:57:07.007Z,97747.50
2023-03-25T14:59:36.355Z,97741.41
2023-03-25T15:02:15.437Z,97733.63
2023-03-25T15:04:42.529Z,97742.72
2023-03-25T15:07:13.087Z,97735.97
2023-03-25T15:10:06.336Z,97733.59
2023-03-25T15:12:38.493Z,97728.19
2023-03-25T15:15:27.042Z,97732.94
2023-03-25T15:17:53.909Z,97727.75
2023-03-25T15:20:23.586Z,97731.59
2023-03-25T15:23:22.216Z,97716.78
2023-03-25T15:25:54.887Z,97719.97
2023-03-25T15:28:43.514Z,97730.88
2023-03-25T15:31:20.470Z,97729.03
2023-03-25T15:34:11.684Z,97714.63
2023-03-25T15:37:01.242Z,97729.56
2023-03-25T15:40:00.843Z,97709.16
2023-03-25T15:42:51.894Z,97715.31
2023-03-25T15:45:52.861Z,97713.81
2023-03-25T15:48:32.866Z,97720.16
2023-03-25T15:51:11.693Z,97714.56
2023-03-25T15:53:42.859Z,97716.84
2023-03-25T15:56:19.488Z,97718.53
2023-03-25T15:58:52.943Z,97725.72
2023-03-25T16:01:31.598Z,97725.94
2023-03-25T16:04:18.816Z,97720.59
2023-03-25T16:06:46.769Z,97710.72
2023-03-25T16:09:19.549Z,97704.31
2023-03-25T16:11:46.912Z,97708.81
2023-03-25T16:14:19.511Z,97704.72
2023-03-25T16:16:54.638Z,97724.25
2023-03-25T16:19:31.729Z,97719.53
2023-03-25T16:22:02.005Z,97722.28
2023-03-25T16:24:34.311Z,97727.47
2023-03-25T16:27:11.793Z,97713.75
2023-03-25T16:29:42.121Z,97719.63
2023-03-25T16:32:19.126Z,97725.44
2023-03-25T16:34:46.748Z,97728.66
2023-03-25T16:37:14.147Z,97734.22
2023-03-25T16:39:41.095Z,97730.19
2023-03-25T16:42:19.591Z,97735.38
2023-03-25T16:44:48.101Z,97729.56
2023-03-25T16:47:16.077Z,97738.16
2023-03-25T16:49:46.827Z,97723.44
2023-03-25T16:52:16.950Z,97718.88
2023-03-25T16:54:52.845Z,97730.59
2023-03-25T16:57:30.123Z,97732.13
2023-03-25T16:59:57.008Z,97725.34
2023-03-25T17:02:42.104Z,97727.25
2023-03-25T17:05:21.290Z,97726.72
2023-03-25T17:07:51.147Z,97738.03
2023-03-25T17:10:26.766Z,97733.38
2023-03-25T17:12:59.816Z,97732.47
2023-03-25T17:15:27.012Z,97733.31
2023-03-25T17:18:01.116Z,97736.78
2023-03-25T17:20:34.924Z,97733.78
2023-03-25T17:23:19.294Z,97741.06
2023-03-25T17:26:08.543Z,97742.06
2023-03-25T17:28:45.254Z,97740.19
2023-03-25T17:31:25.516Z,97757.28
2023-03-25T17:33:54.406Z,97741.97
2023-03-25T17:36:24.675Z,97751.97
2023-03-25T17:38:54.227Z,97747.91
2023-03-25T17:41:21.985Z,97757.81
2023-03-25T17:43:54.369Z,97754.63
2023-03-25T17:46:23.392Z,97753.50
2023-03-25T17:48:50.997Z,97755.94
2023-03-25T17:51:18.838Z,97763.16
2023-03-25T17:53:45.621Z,97768.63
2023-03-25T17:56:13.566Z,97759.72
2023-03-25T17:58:40.345Z,97756.69
2023-03-25T18:01:07.440Z,97759.03
2023-03-25T18:03:35.402Z,97763.66
2023-03-25T18:06:02.603Z,97778.69
2023-03-25T18:08:29.887Z,97773.56
2023-03-25T18:10:56.980Z,97782.19
2023-03-25T18:13:27.444Z,97794.59
2023-03-25T18:15:54.837Z,97803.69
2023-03-25T18:18:26.379Z,97809.09
2023-03-25T18:20:56.129Z,97804.13
2023-03-25T18:23:23.449Z,97806.25
2023-03-25T18:25:50.302Z,97803.66
2023-03-25T18:28:17.378Z,97810.78
2023-03-25T18:30:51.894Z,97803.94
2023-03-25T18:33:19.144Z,97794.19
2023-03-25T18:35:46.855Z,97812.03
2023-03-25T18:38:27.375Z,97813.16
2023-03-25T18:40:55.503Z,97803.81
2023-03-25T18:43:22.587Z,97798.34
2023-03-25T18:45:49.652Z,97803.81
2023-03-25T18:48:21.158Z,97800.38
2023-03-25T18:50:56.437Z,97810.94
2023-03-25T18:53:25.491Z,97814.25
2023-03-25T18:55:54.726Z,97826.00
2023-03-25T18:58:26.505Z,97830.47
2023-03-25T19:00:54.208Z,97845.44
2023-03-25T19:03:30.777Z,97851.53
2023-03-25T19:05:58.494Z,97848.97
2023-03-25T19:08:25.741Z,97845.91
2023-03-25T19:10:57.412Z,97838.00
2023-03-25T19:13:28.939Z,97842.28
2023-03-25T19:15:55.770Z,97835.84
2023-03-25T19:18:29.275Z,97836.50
2023-03-25T19:20:55.972Z,97842.13
2023-03-25T19:23:22.714Z,97838.16
2023-03-25T19:25:50.949Z,97844.25
2023-03-25T19:28:22.285Z,97852.72
2023-03-25T19:30:50.905Z,97858.22
2023-03-25T19:33:19.484Z,97857.38
2023-03-25T19:35:55.031Z,97859.72
2023-03-25T19:38:23.091Z,97865.81
2023-03-25T19:40:51.817Z,97896.41
2023-03-25T19:43:18.737Z,97894.25
2023-03-25T19:45:45.498Z,97897.00
2023-03-25T19:48:12.184Z,97898.59
2023-03-25T19:50:40.969Z,97897.91
2023-03-25T19:53:07.960Z,97891.59
2023-03-25T19:55:34.764Z,97890.63
2023-03-25T19:58:02.485Z,97893.63
2023-03-25T20:00:30.681Z,97884.88
2023-03-25T20:03:00.887Z,97883.56
2023-03-25T20:05:30.498Z,97888.34
2023-03-25T20:07:57.666Z,97885.06
2023-03-25T20:10:28.044Z,97876.94
2023-03-25T20:12:55.562Z,97880.38
2023-03-25T20:15:23.811Z,97877.91
2023-03-25T20:17:51.410Z,97880.56
2023-03-25T20:20:19.479Z,97871.97
2023-03-25T20:22:48.387Z,97880.09
2023-03-25T20:25:16.359Z,97869.00
2023-03-25T20:27:43.821Z,97862.63
2023-03-25T20:30:13.547Z,97857.81
2023-03-25T20:32:42.204Z,97853.84
2023-03-25T20:35:12.676Z,97852.31
2023-03-25T20:37:41.230Z,97851.19
2023-03-25T20:40:11.374Z,97849.69
2023-03-25T20:42:40.652Z,97856.47
2023-03-25T20:45:08.501Z,97853.50
2023-03-25T20:47:35.281Z,97858.41
2023-03-25T20:50:02.156Z,97858.59
2023-03-25T20:52:29.084Z,97858.63
2023-03-25T20:54:56.963Z,97858.75
2023-03-25T20:57:24.134Z,97856.47
2023-03-25T20:59:53.007Z,97851.19
2023-03-25T21:02:21.151Z,97854.31
2023-03-25T21:04:48.090Z,97860.59
2023-03-25T21:07:18.634Z,97857.28
2023-03-25T21:09:49.493Z,97862.19
2023-03-25T21:12:43.776Z,97862.41
2023-03-25T21:15:12.381Z,97857.47
2023-03-25T21:17:39.129Z,97875.28
2023-03-25T21:20:07.727Z,97860.81
2023-03-25T21:22:34.752Z,97863.44
2023-03-25T21:25:01.515Z,97859.78
2023-03-25T21:27:38.151Z,97856.47
2023-03-25T21:30:09.799Z,97858.78
2023-03-25T21:32:37.316Z,97859.78
2023-03-25T21:35:04.107Z,97858.31
2023-03-25T21:37:35.805Z,97853.72
2023-03-25T21:40:02.956Z,97858.16
2023-03-25T21:42:29.838Z,97855.63
2023-03-25T21:44:56.509Z,97856.13
2023-03-25T21:47:23.940Z,97855.97
2023-03-25T21:49:50.805Z,97872.09
2023-03-25T21:52:17.994Z,97880.31
2023-03-25T21:54:44.725Z,97879.63
2023-03-25T21:57:11.600Z,97881.44
2023-03-25T21:59:38.402Z,97874.28
2023-03-25T22:02:05.250Z,97869.97
2023-03-25T22:04:33.840Z,97861.94
2023-03-25T22:07:01.387Z,97881.38
2023-03-25T22:09:28.104Z,97882.66
2023-03-25T22:11:55.901Z,97874.16
2023-03-25T22:14:22.904Z,97872.63
2023-03-25T22:16:49.643Z,97882.69
2023-03-25T22:19:16.402Z,97877.75
2023-03-25T22:21:43.337Z,97878.44
2023-03-25T22:24:10.033Z,97881.53
2023-03-25T22:26:39.425Z,97888.72
2023-03-25T22:29:07.646Z,97893.78
2023-03-25T22:31:39.914Z,97906.91
2023-03-25T22:34:12.624Z,97911.97
2023-03-25T22:36:41.632Z,97914.28
2023-03-25T22:39:08.385Z,97922.38
2023-03-25T22:41:35.880Z,97912.59
2023-03-25T22:44:02.599Z,97929.16
2023-03-25T22:46:29.348Z,97918.53
2023-03-25T22:48:56.105Z,97917.88
2023-03-25T22:51:22.840Z,97914.09
2023-03-25T22:53:49.540Z,97906.78
2023-03-25T22:56:16.386Z,97911.13
2023-03-25T22:58:43.178Z,97904.38
2023-03-25T23:01:24.840Z,97898.94
2023-03-25T23:03:53.840Z,97895.81
2023-03-25T23:06:21.564Z,97900.22
2023-03-25T23:08:48.997Z,97894.53
2023-03-25T23:11:22.386Z,97889.59
2023-03-25T23:13:52.999Z,97890.91
2023-03-25T23:16:22.444Z,97879.03
2023-03-25T23:18:49.627Z,97861.00
2023-03-25T23:21:18.803Z,97852.81
2023-03-25T23:23:52.325Z,97850.44
2023-03-25T23:26:26.672Z,97850.13
2023-03-25T23:28:56.552Z,97847.34
2023-03-25T23:31:28.530Z,97855.09
2023-03-25T23:33:58.349Z,97851.94
2023-03-25T23:36:26.250Z,97849.50
2023-03-25T23:38:53.865Z,97853.44
2023-03-25T23:41:23.169Z,97850.84
2023-03-25T23:43:51.065Z,97856.31
2023-03-25T23:46:21.397Z,97849.03
2023-03-25T23:48:48.386Z,97850.84
2023-03-25T23:51:20.367Z,97846.00
2023-03-25T23:53:48.365Z,97841.97
2023-03-25T23:56:16.565Z,97842.63
2023-03-25T23:58:43.781Z,97847.78
